Le Ponant — FGZZ — position and weather

sailwx.info

Track history (hours):
 
Tides and Currents Weather Stations Pressure Air Temp Water Temp Dewpoint Dewpoint Depression Visibility Wind Speed Wind Dir Waves Ship Positions

Le Ponant

Operator: Compangy des Iles du Ponant

Last reported at 2017-Nov-14 10:19 UTC. Time now 2017-Nov-19 03:08 UTC.
Position N 28°22' W 015°59'.

Length 84 m; draft 4.2 m.

Type: Passenger vessel. MMSI: 227186000.

Date/timePositionNaut miles runAvg speedWind from/ knotsBaromVisibWave heightAir tempDewpointWater temp
2017-Nov-14 10:19N 28°22' W 015°59'5 8.4
2017-Nov-14 09:42N 28°26' W 015°55'2 8.6
2017-Nov-14 09:30N 28°28' W 015°54'4 8.5
2017-Nov-14 09:00N 28°31' W 015°52'5 9.0
2017-Nov-14 08:30N 28°35' W 015°49'5 8.9
2017-Nov-14 07:58N 28°38' W 015°45'4 9.7
2017-Nov-14 07:31N 28°41' W 015°41'510.2
2017-Nov-14 07:00N 28°43' W 015°36'510.5
2017-Nov-14 06:31N 28°46' W 015°31'510.2
2017-Nov-14 06:00N 28°49' W 015°26'5 9.8
2017-Nov-14 05:31N 28°51' W 015°21'5 9.8
2017-Nov-14 04:57N 28°54' W 015°16'1010.0
2017-Nov-14 03:55N 28°59' W 015°06'810.6
2017-Nov-14 03:08N 29°04' W 014°58'210.6
2017-Nov-14 02:59N 29°05' W 014°56'510.3
2017-Nov-14 02:27N 29°08' W 014°51'1210.3
2017-Nov-14 01:17N 29°14' W 014°39'4 9.9
2017-Nov-14 00:53N 29°16' W 014°35'10 9.9
2017-Nov-13 23:53N 29°21' W 014°26'  
2017-Nov-11 18:06N 35°58' W 005°32'110.4
2017-Nov-11 18:00N 35°59' W 005°31'5 9.7
2017-Nov-11 17:30N 36°00' W 005°25'4 8.8
2017-Nov-11 17:00N 36°01' W 005°20'4 8.4
2017-Nov-11 16:30N 36°02' W 005°15'223 9.9
2017-Nov-10 18:02N 37°20' W 000°54'111.0
2017-Nov-10 17:57N 37°21' W 000°53'511.3
2017-Nov-10 17:30N 37°24' W 000°49'611.4
2017-Nov-10 17:00N 37°28' W 000°43'611.3
2017-Nov-10 16:30N 37°32' W 000°38'611.2
2017-Nov-10 16:00N 37°36' W 000°33'510.9
2017-Nov-10 15:30N 37°41' W 000°30'510.7
2017-Nov-10 15:00N 37°46' W 000°28'910.6
2017-Nov-10 14:09N 37°54' W 000°25'210.6
2017-Nov-10 13:59N 37°56' W 000°24'41510.2
2017-Nov-08 21:26N 43°20' E 005°18'1 0.1
2017-Nov-08 10:19N 43°21' E 005°19'1 1.0
2017-Nov-08 08:50N 43°21' E 005°17'  
Track history (hours):
 
Tides and Currents Weather Stations Pressure Air Temp Water Temp Dewpoint Dewpoint Depression Visibility Wind Speed Wind Dir Waves Ship Positions

Le Ponant

Operator: Compangy des Iles du Ponant

Last reported at 2017-Nov-14 10:19 UTC. Time now 2017-Nov-19 03:08 UTC.
Position N 28°22' W 015°59'.

Length 84 m; draft 4.2 m.

Type: Passenger vessel. MMSI: 227186000.

Date/timePositionNaut miles runAvg speedWind from/ knotsBaromVisibWave heightAir tempDewpointWater temp
2017-Nov-14 10:19N 28°22' W 015°59'5 8.4
2017-Nov-14 09:42N 28°26' W 015°55'2 8.6
2017-Nov-14 09:30N 28°28' W 015°54'4 8.5
2017-Nov-14 09:00N 28°31' W 015°52'5 9.0
2017-Nov-14 08:30N 28°35' W 015°49'5 8.9
2017-Nov-14 07:58N 28°38' W 015°45'4 9.7
2017-Nov-14 07:31N 28°41' W 015°41'510.2
2017-Nov-14 07:00N 28°43' W 015°36'510.5
2017-Nov-14 06:31N 28°46' W 015°31'510.2
2017-Nov-14 06:00N 28°49' W 015°26'5 9.8
2017-Nov-14 05:31N 28°51' W 015°21'5 9.8
2017-Nov-14 04:57N 28°54' W 015°16'1010.0
2017-Nov-14 03:55N 28°59' W 015°06'810.6
2017-Nov-14 03:08N 29°04' W 014°58'210.6
2017-Nov-14 02:59N 29°05' W 014°56'510.3
2017-Nov-14 02:27N 29°08' W 014°51'1210.3
2017-Nov-14 01:17N 29°14' W 014°39'4 9.9
2017-Nov-14 00:53N 29°16' W 014°35'10 9.9
2017-Nov-13 23:53N 29°21' W 014°26'  
2017-Nov-11 18:06N 35°58' W 005°32'110.4
2017-Nov-11 18:00N 35°59' W 005°31'5 9.7
2017-Nov-11 17:30N 36°00' W 005°25'4 8.8
2017-Nov-11 17:00N 36°01' W 005°20'4 8.4
2017-Nov-11 16:30N 36°02' W 005°15'223 9.9
2017-Nov-10 18:02N 37°20' W 000°54'111.0
2017-Nov-10 17:57N 37°21' W 000°53'511.3
2017-Nov-10 17:30N 37°24' W 000°49'611.4
2017-Nov-10 17:00N 37°28' W 000°43'611.3
2017-Nov-10 16:30N 37°32' W 000°38'611.2
2017-Nov-10 16:00N 37°36' W 000°33'510.9
2017-Nov-10 15:30N 37°41' W 000°30'510.7
2017-Nov-10 15:00N 37°46' W 000°28'910.6
2017-Nov-10 14:09N 37°54' W 000°25'210.6
2017-Nov-10 13:59N 37°56' W 000°24'41510.2
2017-Nov-08 21:26N 43°20' E 005°18'1 0.1
2017-Nov-08 10:19N 43°21' E 005°19'1 1.0
2017-Nov-08 08:50N 43°21' E 005°17'  

Dump ship's entire track history